Terminal Aerodrome Forecast
Issued by NWS

Home | Current Version | Previous Version | Text Only | Print | Product List | Glossary Off
Versions: 1 2 3 4 5 6 7 8 9 10 11 12 13 14 15 16 17 18 19 20

000
FTUS43 KDLH 291135
TAFHIB
TAF
KHIB 291135Z 2912/3012 23014G20KT P6SM OVC040
     FM291500 26020G30KT P6SM SCT022 OVC035
     FM292000 28024G35KT P6SM BKN050
     FM300200 29010G18KT P6SM FEW060=

USA.gov is the U.S. government's official web portal to all federal, state and local government web resources and services.